Zprávy METAR z letišť v České republice


( ! ) Notice: Undefined variable: mtrLang in C:\wamp64\www\metar\include-metar-display.php on line 69
Call Stack
#TimeMemoryFunctionLocation
10.0236402720{main}( )...\metar-display.php:0
20.0672405800include_once( 'C:\wamp64\www\metar\include-metar-display.php' )...\metar-display.php:115

( ! ) Notice: Undefined variable: wrName in C:\wamp64\www\metar\include-metar-display.php on line 70
Call Stack
#TimeMemoryFunctionLocation
10.0236402720{main}( )...\metar-display.php:0
20.0672405800include_once( 'C:\wamp64\www\metar\include-metar-display.php' )...\metar-display.php:115

( ! ) Notice: Undefined variable: wrName in C:\wamp64\www\metar\include-metar-display.php on line 70
Call Stack
#TimeMemoryFunctionLocation
10.0236402720{main}( )...\metar-display.php:0
20.0672405800include_once( 'C:\wamp64\www\metar\include-metar-display.php' )...\metar-display.php:115

( ! ) Notice: Undefined variable: mtrLang in C:\wamp64\www\metar\include-metar-display.php on line 70
Call Stack
#TimeMemoryFunctionLocation
10.0236402720{main}( )...\metar-display.php:0
20.0672405800include_once( 'C:\wamp64\www\metar\include-metar-display.php' )...\metar-display.php:115

( ! ) Notice: Undefined variable: wrCalm in C:\wamp64\www\metar\include-metar-display.php on line 70
Call Stack
#TimeMemoryFunctionLocation
10.0236402720{main}( )...\metar-display.php:0
20.0672405800include_once( 'C:\wamp64\www\metar\include-metar-display.php' )...\metar-display.php:115

( ! ) Notice: Undefined variable: condIconDir in C:\wamp64\www\metar\include-metar-display.php on line 71
Call Stack
#TimeMemoryFunctionLocation
10.0236402720{main}( )...\metar-display.php:0
20.0672405800include_once( 'C:\wamp64\www\metar\include-metar-display.php' )...\metar-display.php:115

( ! ) Notice: Undefined variable: condIconDir in C:\wamp64\www\metar\include-metar-display.php on line 72
Call Stack
#TimeMemoryFunctionLocation
10.0236402720{main}( )...\metar-display.php:0
20.0672405800include_once( 'C:\wamp64\www\metar\include-metar-display.php' )...\metar-display.php:115

( ! ) Notice: Undefined variable: sunrise in C:\wamp64\www\metar\include-metar-display.php on line 93
Call Stack
#TimeMemoryFunctionLocation
10.0236402720{main}( )...\metar-display.php:0
20.0672405800include_once( 'C:\wamp64\www\metar\include-metar-display.php' )...\metar-display.php:115

( ! ) Notice: Undefined variable: sunset in C:\wamp64\www\metar\include-metar-display.php on line 93
Call Stack
#TimeMemoryFunctionLocation
10.0236402720{main}( )...\metar-display.php:0
20.0672405800include_once( 'C:\wamp64\www\metar\include-metar-display.php' )...\metar-display.php:115
LKPR - Praha Ruzyně, Česká republika
Aktualizováno: 23.09.2018 10:30
 
Teplota vzduchu: 13°C
Vítr: J 15 km/h
Rosný bod: 7°C
Vlhkost vzduchu: 67%
Tlak vzduchu: 1016 hPa
Stav počasí: Jasno
Oblačnost: jasná obloha
Viditelnost: více než 10 km
2018/09/23 08:30 LKPR 230830Z 19008KT CAVOK 13/07 Q1016 NOSIG
LKTB - Brno Tuřany, Česká republika
Aktualizováno: 23.09.2018 10:30
 
Teplota vzduchu: 14°C
Vítr: JZ 13 km/h
Rosný bod: 9°C
Vlhkost vzduchu: 72%
Tlak vzduchu: 1018 hPa
Oblačnost: oblačno
Viditelnost: 10 km
Detaily oblačnosti: skoro jasno 610 m
oblačno 1494 m
2018/09/23 08:30 LKTB 230830Z 22007KT 9999 FEW020 SCT049 14/09 Q1018 NOSIG
 
LKKV - Karlovy Vary, Česká republika
Aktualizováno: 23.09.2018 10:30
 
Teplota vzduchu: 9°C
Vítr: proměnlivý 4 km/h
Rosný bod: 8°C
Vlhkost vzduchu: 94%
Tlak vzduchu: 1015 hPa
Stav počasí: mírnější déšť
Oblačnost: skoro zataženo
Viditelnost: 6 km
Detaily oblačnosti: oblačno 183 m
skoro zataženo 244 m
2018/09/23 08:30 LKKV 230830Z VRB02KT 6000 -RA SCT006 BKN008 09/08 Q1015
LKMT - Ostrava Mošnov, Česká republika
Aktualizováno: 23.09.2018 10:30
 
Teplota vzduchu: 15°C
Vítr: JJZ 24 km/h
Rosný bod: 6°C
Vlhkost vzduchu: 55%
Tlak vzduchu: 1018 hPa
Stav počasí: Jasno
Oblačnost: jasná obloha
Viditelnost: více než 10 km
2018/09/23 08:30 LKMT 230830Z 21013KT CAVOK 15/06 Q1018 NOSIG
 
LKPD - Pardubice, Česká republika
Aktualizováno: 23.09.2018 10:00
 
Teplota vzduchu: 15°C
Vítr: JZ 17 km/h
Rosný bod: 6°C
Vlhkost vzduchu: 55%
Tlak vzduchu: 1017 hPa
Stav počasí: Jasno
Oblačnost: jasná obloha
Viditelnost: více než 10 km
2018/09/23 08:00 LKPD 230800Z 23009KT CAVOK 15/06 Q1017 NOSIG
LKKB - Praha Kbely, Česká republika
Aktualizováno: 23.09.2018 10:00
 
Teplota vzduchu: 13°C
Vítr: JJZ 11 km/h
Rosný bod: 7°C
Vlhkost vzduchu: 67%
Tlak vzduchu: 1016 hPa
Stav počasí: Jasno
Oblačnost: jasná obloha
Viditelnost: více než 10 km
2018/09/23 08:00 LKKB 230800Z 20006KT CAVOK 13/07 Q1016
 
LKCV - Čáslav, Česká republika
Aktualizováno: 23.09.2018 10:00
 
Teplota vzduchu: 14°C
Vítr: JJZ 15 km/h
Rosný bod: 7°C
Vlhkost vzduchu: 63%
Tlak vzduchu: 1017 hPa
Stav počasí: Jasno
Oblačnost: jasná obloha
Viditelnost: více než 10 km
2018/09/23 08:00 LKCV 230800Z 21008KT CAVOK 14/07 Q1017 NOSIG
LKNA - Náměšť n. Osl., Česká republika
Aktualizováno: 23.09.2018 10:00
 
Teplota vzduchu: 12°C
Vítr: JJZ 13 km/h
Rosný bod: 8°C
Vlhkost vzduchu: 77%
Tlak vzduchu: 1018 hPa
Stav počasí: Jasno
Oblačnost: jasná obloha
Viditelnost: více než 10 km
2018/09/23 08:00 LKNA 230800Z 21007KT CAVOK 12/08 Q1018 NOSIG
 
LKLN - Plzeň Líně, Česká republika
Aktualizováno: 23.09.2018 10:00
 
Teplota vzduchu: 12°C
Vítr: J 6 km/h
Rosný bod: 9°C
Vlhkost vzduchu: 82%
Tlak vzduchu: 1016 hPa
Oblačnost: zataženo
Viditelnost: 10 km
Detaily oblačnosti: skoro jasno 549 m
zataženo 1036 m
2018/09/23 08:00 LKLN 230800Z AUTO 17003KT 9999 FEW018 OVC034 12/09 Q1016
LKVO - Vodochody, Česká republika
Aktualizováno: 22.09.2018 12:00
Není aktuální
 
Teplota vzduchu: 16°C
Vítr: Z 28 km/h
Rosný bod: 6°C
Vlhkost vzduchu: 52%
Tlak vzduchu: 1021 hPa
Oblačnost: oblačno
Viditelnost: 10 km
Detaily oblačnosti: oblačno 1128 m
2018/09/22 10:00 LKVO 221000Z 26015KT 9999 SCT037 16/06 Q1021

Metar display script od Saratoga-Weather.org
upravil a přeložil Miloš Jiřík